KISN

Sloulin Field International Airport

Williston, North Dakota, USA
KISN 171132Z 1712/1812 VRB03KT P6SM FEW250 FM171500 17005KT P6SM SCT250
Issued Valid From Valid To
Aug-17 @ 11:32 UTC
(3 hours ago)
Aug-17 @ 12:00 UTC
(3 hours ago)
Aug-18 @ 12:00 UTC
(in 21 hours)
Aug-17 @ 12:00 to Aug-17 @ 15:00
KISN 171132Z 1712/1812 VRB03KT P6SM FEW250
Wind Visibility Clouds
Variable at 3 knots Greater than 6 miles
  • Few at 25,000' AGL
From Aug-17 @ 15:00 to Aug-18 @ 12:00
FM171500 17005KT P6SM SCT250
Wind Visibility Clouds
170° at 5 knots Greater than 6 miles
  • Scattered at 25,000' AGL
KISN 171132Z 1712/1812 VRB03KT P6SM FEW250 FM171500 17005KT P6SM SCT250
Issued Aug-17 @ 11:32 UTC
(3 hours ago)
Valid From Aug-17 @ 12:00 UTC
(3 hours ago)
Valid To Aug-18 @ 12:00 UTC
(in 21 hours)
Aug-17 @ 12:00 - Aug-17 @ 15:00
Wind Visibility
Variable at 3 knots Greater than 6 miles
Clouds
  • Few at 25,000' AGL
From Aug-17 @ 15:00 - Aug-18 @ 12:00
Wind Visibility
170° at 5 knots Greater than 6 miles
Clouds
  • Scattered at 25,000' AGL